createdAt,value
2019-02-20T00:04:17.196Z,8.68
2019-02-20T00:08:52.965Z,8.00
2019-02-20T00:13:28.838Z,9.55
2019-02-20T00:18:04.602Z,8.90
2019-02-20T00:22:40.633Z,6.03
2019-02-20T00:27:16.621Z,6.12
2019-02-20T00:31:52.400Z,7.50
2019-02-20T00:36:28.245Z,7.35
2019-02-20T00:41:04.058Z,6.78
2019-02-20T00:45:57.801Z,9.48
2019-02-20T00:50:35.120Z,11.90
2019-02-20T00:55:11.490Z,9.03
2019-02-20T00:59:47.308Z,5.50
2019-02-20T01:04:23.077Z,10.72
2019-02-20T01:08:58.883Z,11.20
2019-02-20T01:13:34.646Z,5.25
2019-02-20T01:18:10.477Z,6.62
2019-02-20T01:22:46.230Z,6.97
2019-02-20T01:27:22.009Z,8.90
2019-02-20T01:31:57.769Z,6.75
2019-02-20T01:36:33.552Z,6.08
2019-02-20T01:41:09.316Z,6.67
2019-02-20T01:45:45.101Z,9.55
2019-02-20T01:50:20.864Z,9.93
2019-02-20T01:54:56.652Z,4.72
2019-02-20T01:59:32.430Z,6.00
2019-02-20T02:04:08.244Z,7.00
2019-02-20T02:08:44.009Z,12.30
2019-02-20T02:13:19.781Z,8.93
2019-02-20T02:17:55.568Z,9.95
2019-02-20T02:22:31.338Z,5.78
2019-02-20T02:27:07.119Z,9.98
2019-02-20T02:31:42.898Z,12.53
2019-02-20T02:36:18.658Z,8.20
2019-02-20T02:40:54.445Z,8.68
2019-02-20T02:45:30.202Z,9.08
2019-02-20T02:50:06.923Z,11.30
2019-02-20T02:54:42.701Z,10.28
2019-02-20T02:59:18.492Z,9.53
2019-02-20T03:03:54.269Z,9.40
2019-02-20T03:08:30.049Z,9.55
2019-02-20T03:13:05.869Z,15.08
2019-02-20T03:17:41.961Z,14.35
2019-02-20T03:22:17.752Z,7.25
2019-02-20T03:26:53.592Z,11.83
2019-02-20T03:31:29.376Z,6.42
2019-02-20T03:36:05.241Z,6.37
2019-02-20T03:40:41.011Z,9.98
2019-02-20T03:45:16.793Z,9.53
2019-02-20T03:49:52.556Z,5.53
2019-02-20T03:54:28.329Z,7.25
2019-02-20T03:59:04.120Z,8.70
2019-02-20T04:03:39.960Z,9.68
2019-02-20T04:08:15.763Z,8.75
2019-02-20T04:12:51.532Z,8.93
2019-02-20T04:17:27.292Z,8.73
2019-02-20T04:22:03.077Z,10.23
2019-02-20T04:26:40.066Z,11.33
2019-02-20T04:31:15.853Z,10.90
2019-02-20T04:35:51.655Z,9.88
2019-02-20T04:40:27.526Z,5.62
2019-02-20T04:45:03.289Z,6.47
2019-02-20T04:49:39.049Z,6.60
2019-02-20T04:54:14.803Z,7.58
2019-02-20T04:58:55.977Z,6.83
2019-02-20T05:03:31.732Z,10.00
2019-02-20T05:08:07.522Z,12.28
2019-02-20T05:12:43.318Z,11.43
2019-02-20T05:17:19.158Z,12.82
2019-02-20T05:21:54.927Z,11.83
2019-02-20T05:26:30.709Z,16.87
2019-02-20T05:31:06.474Z,6.90
2019-02-20T05:35:43.541Z,11.05
2019-02-20T05:40:22.377Z,10.30
2019-02-20T05:44:58.159Z,8.15
2019-02-20T05:49:33.922Z,9.58
2019-02-20T05:54:09.702Z,11.53
2019-02-20T05:58:45.490Z,7.33
2019-02-20T06:03:21.338Z,9.53
2019-02-20T06:07:57.104Z,6.22
2019-02-20T06:12:32.897Z,15.05
2019-02-20T06:17:08.733Z,12.00
2019-02-20T06:21:44.602Z,7.40
2019-02-20T06:26:20.400Z,9.38
2019-02-20T06:30:56.255Z,15.23
2019-02-20T06:35:32.000Z,8.03
2019-02-20T06:40:09.411Z,13.25
2019-02-20T06:44:45.175Z,10.38
2019-02-20T06:49:22.457Z,14.18
2019-02-20T06:53:58.216Z,13.28
2019-02-20T06:58:34.006Z,11.10
2019-02-20T07:03:09.784Z,12.63
2019-02-20T07:08:04.485Z,13.58
2019-02-20T07:13:08.257Z,11.37
2019-02-20T07:18:16.187Z,10.25
2019-02-20T07:23:35.885Z,10.03
2019-02-20T07:28:58.245Z,10.80
2019-02-20T07:33:34.044Z,14.90
2019-02-20T07:38:09.841Z,10.25
2019-02-20T07:42:45.612Z,7.78
2019-02-20T07:47:21.397Z,10.68
2019-02-20T07:51:57.167Z,9.17
2019-02-20T07:56:32.953Z,10.65
2019-02-20T08:01:08.714Z,21.50
2019-02-20T08:05:44.501Z,21.97
2019-02-20T08:10:20.265Z,16.70
2019-02-20T08:14:56.076Z,19.05
2019-02-20T08:19:31.908Z,16.90
2019-02-20T08:24:07.780Z,27.05
2019-02-20T08:28:43.605Z,19.65
2019-02-20T08:33:19.398Z,16.75
2019-02-20T08:42:30.012Z,14.75
2019-02-20T08:47:05.781Z,11.10
2019-02-20T08:51:41.568Z,12.50
2019-02-20T08:56:17.345Z,12.23
2019-02-20T09:00:53.133Z,10.38
2019-02-20T09:05:28.906Z,9.78
2019-02-20T09:10:05.876Z,13.13
2019-02-20T09:14:41.723Z,15.43
2019-02-20T09:19:17.506Z,15.38
2019-02-20T09:23:53.310Z,11.88
2019-02-20T09:28:29.150Z,9.30
2019-02-20T09:33:04.936Z,10.00
2019-02-20T09:37:40.717Z,7.15
2019-02-20T09:42:18.789Z,15.93
2019-02-20T09:46:54.556Z,8.78
2019-02-20T09:51:30.317Z,15.15
2019-02-20T09:56:06.088Z,12.45
2019-02-20T10:00:42.957Z,11.60
2019-02-20T10:05:18.737Z,7.80
2019-02-20T10:09:54.600Z,18.20
2019-02-20T10:14:30.369Z,15.90
2019-02-20T10:19:06.133Z,10.82
2019-02-20T10:23:41.919Z,10.60
2019-02-20T10:28:17.913Z,10.18
2019-02-20T10:32:53.692Z,15.55
2019-02-20T10:37:29.446Z,15.60
2019-02-20T10:42:05.248Z,15.00
2019-02-20T10:46:41.013Z,9.55
2019-02-20T10:51:16.790Z,11.08
2019-02-20T10:55:52.545Z,9.88
2019-02-20T11:00:29.968Z,16.85
2019-02-20T11:05:07.621Z,13.48
2019-02-20T11:09:43.416Z,11.93
2019-02-20T11:14:19.185Z,15.30
2019-02-20T11:18:55.058Z,17.92
2019-02-20T11:23:30.836Z,15.43
2019-02-20T11:28:06.605Z,12.68
2019-02-20T11:32:42.396Z,16.80
2019-02-20T11:37:19.494Z,13.20
2019-02-20T11:41:55.278Z,15.60
2019-02-20T11:46:31.068Z,14.63
2019-02-20T11:51:07.013Z,12.20
2019-02-20T11:55:42.834Z,15.45
2019-02-20T12:00:18.628Z,15.32
2019-02-20T12:04:54.409Z,11.20
2019-02-20T12:09:30.246Z,12.88
2019-02-20T12:14:06.101Z,11.00
2019-02-20T12:18:41.887Z,13.30
2019-02-20T12:23:17.681Z,17.23
2019-02-20T12:27:53.469Z,18.12
2019-02-20T12:32:30.904Z,11.05
2019-02-20T12:37:06.788Z,9.35
2019-02-20T12:41:42.657Z,9.78
2019-02-20T12:46:18.429Z,16.55
2019-02-20T12:50:54.226Z,9.63
2019-02-20T12:55:30.289Z,10.88
2019-02-20T13:00:07.160Z,19.42
2019-02-20T13:04:43.714Z,14.98
2019-02-20T13:09:20.603Z,14.98
2019-02-20T13:13:56.385Z,7.72
2019-02-20T13:18:32.196Z,20.37
2019-02-20T13:23:08.984Z,13.98
2019-02-20T13:27:44.941Z,14.13
2019-02-20T13:32:20.750Z,22.65
2019-02-20T13:36:56.601Z,14.93
2019-02-20T13:41:32.477Z,14.85
2019-02-20T13:46:08.402Z,11.68
2019-02-20T13:50:44.189Z,9.60
2019-02-20T13:55:20.467Z,12.70
2019-02-20T13:59:56.293Z,8.65
2019-02-20T14:04:32.156Z,8.70
2019-02-20T14:09:08.422Z,14.58
2019-02-20T14:13:44.300Z,20.08
2019-02-20T14:18:20.104Z,13.25
2019-02-20T14:22:55.969Z,14.13
2019-02-20T14:27:31.812Z,10.98
2019-02-20T14:32:07.605Z,15.05
2019-02-20T14:36:44.383Z,15.80
2019-02-20T14:41:21.418Z,11.65
2019-02-20T14:45:57.444Z,19.20
2019-02-20T14:50:33.304Z,11.25
2019-02-20T14:55:09.194Z,8.85
2019-02-20T14:59:45.062Z,14.10
2019-02-20T15:04:20.917Z,13.60
2019-02-20T15:08:56.721Z,16.67
2019-02-20T15:13:32.492Z,19.50
2019-02-20T15:18:08.356Z,16.30
2019-02-20T15:22:44.164Z,13.95
2019-02-20T15:27:28.293Z,13.85
2019-02-20T15:31:57.502Z,15.53
2019-02-20T15:36:33.377Z,16.95
2019-02-20T15:41:09.201Z,18.87
2019-02-20T15:45:45.133Z,14.38
2019-02-20T15:50:21.008Z,12.03
2019-02-20T15:54:58.695Z,17.37
2019-02-20T15:59:34.547Z,16.23
2019-02-20T16:04:10.345Z,29.82
2019-02-20T16:08:46.393Z,20.77
2019-02-20T16:13:22.200Z,23.27
2019-02-20T16:17:58.046Z,24.10
2019-02-20T16:22:35.861Z,17.62
2019-02-20T16:27:11.705Z,20.40
2019-02-20T16:31:47.599Z,24.92
2019-02-20T16:36:23.468Z,25.90
2019-02-20T16:40:59.339Z,20.72
2019-02-20T16:45:35.120Z,23.30
2019-02-20T16:50:11.995Z,24.10
2019-02-20T16:54:47.793Z,21.02
2019-02-20T16:59:23.677Z,21.40
2019-02-20T17:03:59.516Z,30.30
2019-02-20T17:08:36.417Z,26.93
2019-02-20T17:13:12.256Z,22.98
2019-02-20T17:17:48.174Z,22.82
2019-02-20T17:22:24.387Z,20.60
2019-02-20T17:27:00.292Z,16.45
2019-02-20T17:31:36.125Z,12.78
2019-02-20T17:36:11.994Z,14.47
2019-02-20T17:40:47.757Z,24.85
2019-02-20T17:45:24.733Z,15.68
2019-02-20T17:50:00.532Z,15.28
2019-02-20T17:54:36.397Z,22.95
2019-02-20T17:59:12.180Z,22.98
2019-02-20T18:03:47.997Z,19.10
2019-02-20T18:08:23.829Z,17.67
2019-02-20T18:12:59.621Z,16.97
2019-02-20T18:17:35.382Z,15.08
2019-02-20T18:22:11.165Z,32.20
2019-02-20T18:26:46.936Z,30.57
2019-02-20T18:31:22.738Z,27.15
2019-02-20T18:35:58.521Z,25.15
2019-02-20T18:40:34.776Z,21.12
2019-02-20T18:45:11.797Z,41.77
2019-02-20T18:49:49.434Z,50.15
2019-02-20T18:54:25.383Z,34.03
2019-02-20T18:59:01.180Z,14.25
2019-02-20T19:03:37.459Z,16.50
2019-02-20T19:08:35.717Z,13.08
2019-02-20T19:14:09.175Z,15.80
2019-02-20T19:19:25.130Z,19.62
2019-02-20T19:24:57.065Z,20.50
2019-02-20T19:29:55.714Z,17.62
2019-02-20T19:35:08.250Z,26.20
2019-02-20T19:40:20.703Z,18.15
2019-02-20T19:45:34.285Z,16.25
2019-02-20T19:50:48.590Z,22.95
2019-02-20T19:55:43.419Z,28.85
2019-02-20T20:00:42.386Z,27.67
2019-02-20T20:05:54.408Z,16.37
2019-02-20T20:11:16.197Z,17.57
2019-02-20T20:16:18.656Z,23.62
2019-02-20T20:21:06.121Z,17.25
2019-02-20T20:26:03.431Z,15.90
2019-02-20T20:31:08.729Z,17.23
2019-02-20T20:36:14.744Z,16.65
2019-02-20T20:41:28.377Z,14.10
2019-02-20T20:46:44.366Z,15.55
2019-02-20T20:52:12.633Z,18.27
2019-02-20T20:57:18.732Z,15.30
2019-02-20T21:02:32.083Z,14.55
2019-02-20T21:07:33.226Z,16.62
2019-02-20T21:12:42.105Z,13.93
2019-02-20T21:17:57.374Z,15.48
2019-02-20T21:23:07.710Z,13.50
2019-02-20T21:28:30.537Z,17.32
2019-02-20T21:33:49.534Z,17.37
2019-02-20T21:39:01.526Z,15.32
2019-02-20T21:44:20.628Z,14.33
2019-02-20T21:49:18.316Z,17.92
2019-02-20T21:54:37.185Z,18.82
2019-02-20T21:59:41.441Z,22.22
2019-02-20T22:04:43.026Z,13.30
2019-02-20T22:09:58.214Z,19.95
2019-02-20T22:14:48.462Z,18.90
2019-02-20T22:19:58.514Z,10.80
2019-02-20T22:24:52.772Z,12.13
2019-02-20T22:30:04.781Z,13.40
2019-02-20T22:35:09.675Z,15.90
2019-02-20T22:40:23.622Z,16.65
2019-02-20T22:45:25.092Z,11.38
2019-02-20T22:50:27.257Z,16.60
2019-02-20T22:55:35.171Z,14.60
2019-02-20T23:05:48.588Z,17.32
2019-02-20T23:15:21.669Z,14.33
2019-02-20T23:19:57.489Z,21.95
2019-02-20T23:24:33.256Z,18.40
2019-02-20T23:29:09.022Z,12.98
2019-02-20T23:33:44.896Z,18.95
2019-02-20T23:38:20.661Z,11.38
2019-02-20T23:42:56.437Z,11.97
2019-02-20T23:47:32.204Z,14.63
2019-02-20T23:52:08.017Z,13.15
2019-02-20T23:56:43.788Z,14.35
